Startpagina
METAR-TAF:

METAR-TAF

Vliegvelden :

Koeweit, Koeweit

breedte: 29-13N, lengte: 047-59E, hoogte: 55 m

Actueel weer

Dit bericht is 37 minuten geleden gemaakt, om 23:00 UTC
Weinig wind
Temperatuur 29°C
Vochtigheid 27%
Druk 1006 hPa
Zicht: 8000 m
Onbewolkt

METAR: OKBK 262300Z 00000KT 8000 SKC 29/08 Q1006 NOSIG

Tijdstip: 02:37 (23:37 UTC)

Verwachting

Dit bericht is 12 uur en het 52 minuten geleden gemaakt, om 10:45 UTC
Verwachting geldig van 26 om 12 UTC tot 27 om 18 UTC
Wind 12 kt uit het noordnoordwesten
Zicht: 7000 m
Onbewolkt
Tijdelijke
van 27 om 00 UTC tot 27 om 09 UTC
Wind 3 kt uit variabele richting

TAF: OKBK 261045Z 2612/2718 34012KT 7000 SKC TEMPO 2700/2709 VRB03KT

Waarnemingen en weersverwachtingen van meer dan 4000 vliegvelden (METAR en TAF).

De beschikbare stations zijn de gele en rode punten op de kaart.

Ga met uw muis naar het station om de naam te zien.

Klik dan om waarnemingen en weersverwachtingen te zien.

kaart wijzigen: klik op de groene knoppen met een zwart kruis om in te zoomen, op de groene knop met een streepje om uit te zoomen of op de groene pijlen voor aangrenzende kaarten.


METAR-TAF: